Time;durP1;ratioP1;P1;durP2;ratioP2;P2;SDS_P1;SDS_P2;PMS_P1;PMS_P2;Temp;Humidity;BMP_temperature;BMP_pressure;BME280_temperature;BME280_humidity;BME280_pressure;Samples;Min_cycle;Max_cycle;Signal;HPM_P1;HPM_P2
2022/11/02 00:01:49;;;;;;;7.53;1.60;;;14.30;99.90;;;;;;4976316;28;20640;-69
2022/11/02 00:04:14;;;;;;;6.10;1.80;;;14.20;99.90;;;;;;4976252;28;20182;-69
2022/11/02 00:06:40;;;;;;;7.00;1.77;;;14.10;99.90;;;;;;4975868;28;20589;-68
2022/11/02 00:09:06;;;;;;;5.57;1.53;;;14.10;99.90;;;;;;4974766;28;20179;-68
2022/11/02 00:11:32;;;;;;;5.73;1.53;;;14.10;99.90;;;;;;4976109;28;20251;-69
2022/11/02 00:13:58;;;;;;;8.63;2.10;;;14.00;99.90;;;;;;4974721;28;20541;-69
2022/11/02 00:16:24;;;;;;;5.80;1.60;;;14.00;99.90;;;;;;4975881;28;20204;-69
2022/11/02 00:18:54;;;;;;;6.53;1.70;;;14.00;99.90;;;;;;4975883;28;20192;-69
2022/11/02 00:21:20;;;;;;;4.97;1.60;;;14.00;99.90;;;;;;4975737;28;20247;-69
2022/11/02 00:23:47;;;;;;;6.80;1.60;;;14.00;99.90;;;;;;4975748;28;20267;-70
2022/11/02 00:26:13;;;;;;;8.03;1.93;;;14.00;99.90;;;;;;4975697;28;20738;-69
2022/11/02 00:28:38;;;;;;;5.53;1.97;;;14.00;99.90;;;;;;4975980;28;20195;-69
2022/11/02 00:31:04;;;;;;;6.93;1.80;;;14.00;99.90;;;;;;4975618;28;20227;-70
2022/11/02 00:33:30;;;;;;;7.77;2.00;;;13.90;99.90;;;;;;4975796;28;20231;-70
2022/11/02 00:35:56;;;;;;;4.47;1.80;;;14.00;99.90;;;;;;4974172;28;20632;-70
2022/11/02 00:38:22;;;;;;;8.10;1.70;;;13.90;99.90;;;;;;4975446;28;20231;-69
2022/11/02 00:40:47;;;;;;;6.27;2.00;;;13.90;99.90;;;;;;4975788;28;20624;-69
2022/11/02 00:43:13;;;;;;;4.33;1.90;;;13.80;99.90;;;;;;4975659;28;20259;-69
2022/11/02 00:45:39;;;;;;;6.80;2.00;;;13.90;99.90;;;;;;4975440;28;20698;-70
2022/11/02 00:48:05;;;;;;;3.50;1.57;;;13.90;99.90;;;;;;4975504;28;20176;-69
2022/11/02 00:50:30;;;;;;;7.83;2.00;;;13.90;99.90;;;;;;4975122;28;20226;-69
2022/11/02 00:52:56;;;;;;;14.80;2.50;;;13.90;99.90;;;;;;4973917;28;20266;-69
2022/11/02 00:55:22;;;;;;;4.37;1.60;;;13.80;99.90;;;;;;4973990;28;20168;-69
2022/11/02 00:57:47;;;;;;;8.57;2.10;;;13.80;99.90;;;;;;4975350;28;20262;-70
2022/11/02 01:00:14;;;;;;;5.90;2.00;;;13.80;99.90;;;;;;4975530;28;20172;-70
2022/11/02 01:02:40;;;;;;;5.97;1.90;;;13.80;99.90;;;;;;4975127;28;20254;-69
2022/11/02 01:05:07;;;;;;;6.67;2.33;;;13.70;99.90;;;;;;4974898;28;20319;-69
2022/11/02 01:07:33;;;;;;;8.30;1.97;;;13.70;99.90;;;;;;4974960;28;20231;-69
2022/11/02 01:09:58;;;;;;;9.03;2.13;;;13.70;99.90;;;;;;4975335;28;20653;-70
2022/11/02 01:12:24;;;;;;;11.07;2.20;;;13.60;99.90;;;;;;4975342;28;20180;-68
2022/11/02 01:14:50;;;;;;;9.70;2.30;;;13.60;99.90;;;;;;4975040;28;20524;-69
2022/11/02 01:17:16;;;;;;;6.20;2.00;;;13.60;99.90;;;;;;4974964;28;20559;-69
2022/11/02 01:19:42;;;;;;;7.70;2.17;;;13.60;99.90;;;;;;4974499;28;20192;-71
2022/11/02 01:22:07;;;;;;;6.60;1.90;;;13.50;99.90;;;;;;4974834;28;20191;-69
2022/11/02 01:24:33;;;;;;;8.53;2.03;;;13.50;99.90;;;;;;4974963;28;20179;-69
2022/11/02 01:26:59;;;;;;;8.93;2.07;;;13.60;99.90;;;;;;4973502;28;20191;-70
2022/11/02 01:29:25;;;;;;;6.27;2.37;;;13.50;99.90;;;;;;4975027;28;20666;-69
2022/11/02 01:31:52;;;;;;;6.23;2.00;;;13.50;99.90;;;;;;4974500;28;20762;-70
2022/11/02 01:34:18;;;;;;;6.27;1.70;;;13.50;99.90;;;;;;4974501;28;20202;-69
2022/11/02 01:36:45;;;;;;;7.93;2.30;;;13.50;99.90;;;;;;4974548;28;20211;-69
2022/11/02 01:39:11;;;;;;;11.07;2.10;;;13.50;99.90;;;;;;4974653;28;20395;-70
2022/11/02 01:41:37;;;;;;;8.67;2.10;;;13.50;99.90;;;;;;4974658;28;20182;-70
2022/11/02 01:44:03;;;;;;;6.57;2.20;;;13.50;99.90;;;;;;4974726;28;20591;-69
2022/11/02 01:47:01;;;;;;;7.17;1.77;;;13.50;99.90;;;;;;4973443;28;20184;-69
2022/11/02 01:49:28;;;;;;;7.20;2.13;;;13.50;99.90;;;;;;4974246;28;20211;-69
2022/11/02 01:52:06;;;;;;;9.47;2.30;;;13.40;99.90;;;;;;4974500;28;20563;-69
2022/11/02 01:54:36;;;;;;;9.80;2.17;;;13.40;99.90;;;;;;4974532;28;20242;-68
2022/11/02 01:57:09;;;;;;;9.60;2.40;;;13.50;99.90;;;;;;4973078;28;20208;-69
2022/11/02 01:59:42;;;;;;;8.27;2.07;;;13.50;99.90;;;;;;4974172;28;20643;-69
2022/11/02 02:02:17;;;;;;;8.60;2.60;;;13.50;99.90;;;;;;4972952;28;20242;-69
2022/11/02 02:04:44;;;;;;;8.43;2.10;;;13.50;99.90;;;;;;4973154;28;20238;-69
2022/11/02 02:07:12;;;;;;;5.27;1.87;;;13.60;99.90;;;;;;4976221;28;20179;-69
2022/11/02 02:09:38;;;;;;;8.43;2.37;;;13.60;99.90;;;;;;4978242;28;20236;-69
2022/11/02 02:12:04;;;;;;;11.60;2.30;;;13.60;99.90;;;;;;4978144;28;20171;-69
2022/11/02 02:14:30;;;;;;;6.33;1.80;;;13.60;99.90;;;;;;4977105;28;20176;-69
2022/11/02 02:17:24;;;;;;;8.20;2.30;;;13.70;99.90;;;;;;4977750;28;20615;-69
2022/11/02 02:20:19;;;;;;;11.10;2.33;;;13.70;99.90;;;;;;4978275;28;20195;-69
2022/11/02 02:23:21;;;;;;;7.10;2.00;;;13.70;99.90;;;;;;4978178;28;20195;-69
2022/11/02 02:26:24;;;;;;;10.03;2.00;;;13.70;99.90;;;;;;4977967;28;20251;-69
2022/11/02 02:28:55;;;;;;;6.17;2.20;;;13.60;99.90;;;;;;4977929;28;20172;-69
2022/11/02 02:31:35;;;;;;;9.40;2.40;;;13.60;99.90;;;;;;4977585;28;20809;-69
2022/11/02 02:34:18;;;;;;;8.40;2.33;;;13.50;99.90;;;;;;4977823;28;20180;-68
2022/11/02 02:36:56;;;;;;;6.70;2.27;;;13.40;99.90;;;;;;4977721;28;20207;-68
2022/11/02 02:39:57;;;;;;;6.90;2.40;;;13.40;99.90;;;;;;4977757;28;20183;-68
2022/11/02 02:42:27;;;;;;;13.77;2.60;;;13.40;99.90;;;;;;4977746;28;20211;-68
2022/11/02 02:45:00;;;;;;;11.63;2.47;;;13.40;99.90;;;;;;4976142;28;20187;-70
2022/11/02 02:47:30;;;;;;;12.57;2.50;;;13.40;99.90;;;;;;4977575;28;20164;-70
2022/11/02 02:50:19;;;;;;;6.37;2.37;;;13.40;99.90;;;;;;4976461;28;20180;-69
2022/11/02 02:52:47;;;;;;;7.00;2.37;;;13.40;99.90;;;;;;4977470;28;20259;-69
2022/11/02 02:55:17;;;;;;;10.13;2.83;;;13.30;99.90;;;;;;4977440;28;20199;-69
2022/11/02 02:57:44;;;;;;;7.97;2.47;;;13.40;99.90;;;;;;4977404;28;20207;-69
2022/11/02 03:00:16;;;;;;;8.60;2.17;;;13.30;99.90;;;;;;4977156;28;20179;-69
2022/11/02 03:02:43;;;;;;;8.43;2.43;;;13.40;99.90;;;;;;4977290;28;20176;-69
2022/11/02 03:05:25;;;;;;;9.00;2.23;;;13.40;99.90;;;;;;4977372;28;20176;-69
2022/11/02 03:07:52;;;;;;;13.53;2.87;;;13.40;99.90;;;;;;4977324;28;20172;-69
2022/11/02 03:10:32;;;;;;;10.80;2.60;;;13.20;99.90;;;;;;4977248;28;20207;-69
2022/11/02 03:13:12;;;;;;;9.33;3.17;;;13.30;99.90;;;;;;4977221;28;20176;-69
2022/11/02 03:15:47;;;;;;;10.57;2.30;;;13.30;99.90;;;;;;4976762;28;20200;-69
2022/11/02 03:18:18;;;;;;;11.40;2.50;;;13.30;99.90;;;;;;4975681;28;20207;-69
2022/11/02 03:21:29;;;;;;;8.47;2.57;;;13.30;99.90;;;;;;4976988;28;20176;-69
2022/11/02 03:24:10;;;;;;;11.80;2.50;;;13.30;99.90;;;;;;4976894;28;20751;-69
2022/11/02 03:26:49;;;;;;;8.73;2.20;;;13.30;99.90;;;;;;4976822;28;20171;-69
2022/11/02 03:29:24;;;;;;;11.23;2.70;;;13.30;99.90;;;;;;4975223;28;20551;-69
2022/11/02 03:31:53;;;;;;;9.17;2.37;;;13.20;99.90;;;;;;4976736;28;20230;-69
2022/11/02 03:34:39;;;;;;;9.03;2.10;;;13.20;99.90;;;;;;4977219;28;20621;-69
2022/11/02 03:37:19;;;;;;;8.07;2.33;;;13.20;99.90;;;;;;4975358;28;20214;-70
2022/11/02 03:39:48;;;;;;;5.60;2.13;;;13.20;99.90;;;;;;4976680;28;20179;-68
2022/11/02 03:42:21;;;;;;;7.53;2.60;;;13.20;99.90;;;;;;4976276;28;20202;-69
2022/11/02 03:44:51;;;;;;;10.13;2.07;;;13.20;99.90;;;;;;4976326;28;20223;-68
2022/11/02 03:47:19;;;;;;;11.47;2.43;;;13.10;99.90;;;;;;4976553;28;20179;-69
2022/11/02 03:49:46;;;;;;;8.77;2.27;;;13.20;99.90;;;;;;4976394;28;20251;-69
2022/11/02 03:52:18;;;;;;;11.27;2.80;;;13.10;99.90;;;;;;4975073;28;20183;-69
2022/11/02 03:54:55;;;;;;;8.70;2.30;;;13.10;99.90;;;;;;4976465;28;20186;-69
2022/11/02 03:57:27;;;;;;;15.50;2.93;;;13.10;99.90;;;;;;4976031;28;20207;-69
2022/11/02 04:00:04;;;;;;;12.83;3.00;;;13.00;99.90;;;;;;4975194;28;20183;-69
2022/11/02 04:02:31;;;;;;;10.77;2.93;;;12.90;99.90;;;;;;4976154;28;20176;-69
2022/11/02 04:04:56;;;;;;;10.80;2.67;;;12.90;99.90;;;;;;4976177;28;20172;-69
2022/11/02 04:07:27;;;;;;;11.90;3.10;;;12.90;99.90;;;;;;4976413;28;20180;-69
2022/11/02 04:09:53;;;;;;;9.77;2.80;;;12.90;99.90;;;;;;4976129;28;20177;-69
2022/11/02 04:15:03;;;;;;;13.77;2.73;;;12.90;99.90;;;;;;4976020;28;20706;-69
2022/11/02 04:20:13;;;;;;;9.03;2.40;;;12.90;99.90;;;;;;4975548;28;20318;-69
2022/11/02 04:25:22;;;;;;;11.57;2.37;;;12.80;99.90;;;;;;4975920;28;20171;-69
2022/11/02 04:27:50;;;;;;;7.33;2.87;;;12.70;99.90;;;;;;4975697;28;20180;-70
2022/11/02 04:30:18;;;;;;;12.43;2.40;;;12.70;99.90;;;;;;4973658;28;20668;-70
2022/11/02 04:35:31;;;;;;;15.93;2.40;;;12.70;99.90;;;;;;4975874;28;20175;-70
2022/11/02 04:40:43;;;;;;;9.47;2.37;;;12.80;99.90;;;;;;4975691;28;20303;-69
2022/11/02 04:43:09;;;;;;;10.67;2.80;;;12.70;99.90;;;;;;4975368;28;20187;-70
2022/11/02 04:45:35;;;;;;;9.07;2.40;;;12.80;99.90;;;;;;4975248;28;20588;-69
2022/11/02 04:48:09;;;;;;;9.30;2.00;;;12.70;99.90;;;;;;4975429;28;20534;-69
2022/11/02 04:50:35;;;;;;;14.60;3.03;;;12.60;99.90;;;;;;4975407;28;20174;-69
2022/11/02 04:53:03;;;;;;;10.90;2.87;;;12.60;99.90;;;;;;4974710;28;20172;-70
2022/11/02 04:55:29;;;;;;;9.47;2.50;;;12.50;99.90;;;;;;4974369;28;20203;-70
2022/11/02 04:57:55;;;;;;;14.93;2.90;;;12.50;99.90;;;;;;4974937;28;20647;-69
2022/11/02 05:00:21;;;;;;;13.30;2.90;;;12.50;99.90;;;;;;4975195;28;20176;-69
2022/11/02 05:02:48;;;;;;;12.60;2.70;;;12.50;99.90;;;;;;4974961;28;20267;-69
2022/11/02 05:05:15;;;;;;;11.50;2.60;;;12.40;99.90;;;;;;4974898;28;20180;-69
2022/11/02 05:07:41;;;;;;;11.70;2.57;;;12.30;99.90;;;;;;4975097;28;20176;-69
2022/11/02 05:10:08;;;;;;;16.33;2.90;;;12.30;99.90;;;;;;4974330;28;20172;-69
2022/11/02 05:12:34;;;;;;;14.73;2.50;;;12.30;99.90;;;;;;4974605;28;20243;-69
2022/11/02 05:14:59;;;;;;;10.77;2.73;;;12.30;99.90;;;;;;4974587;28;20643;-69
2022/11/02 05:17:25;;;;;;;10.20;2.67;;;12.30;99.90;;;;;;4974315;28;20219;-69
2022/11/02 05:19:50;;;;;;;7.43;2.30;;;12.30;99.90;;;;;;4974868;28;20600;-69
2022/11/02 05:22:16;;;;;;;14.83;2.83;;;12.30;99.90;;;;;;4974557;28;20248;-69
2022/11/02 05:24:42;;;;;;;16.47;2.80;;;12.20;99.90;;;;;;4973875;28;20266;-69
2022/11/02 05:27:08;;;;;;;11.40;2.93;;;12.10;99.90;;;;;;4974577;28;20182;-69
2022/11/02 05:29:34;;;;;;;12.37;2.53;;;12.10;99.90;;;;;;4974654;28;20172;-69
2022/11/02 05:32:00;;;;;;;12.50;2.60;;;12.10;99.90;;;;;;4973971;28;20232;-69
2022/11/02 05:34:25;;;;;;;13.00;2.83;;;12.00;99.90;;;;;;4974432;28;20486;-69
2022/11/02 05:36:51;;;;;;;15.13;2.93;;;12.10;99.90;;;;;;4974091;28;20200;-69
2022/11/02 05:39:16;;;;;;;11.03;2.70;;;12.10;99.90;;;;;;4973979;28;20172;-69
2022/11/02 05:41:42;;;;;;;14.13;3.13;;;12.10;99.90;;;;;;4973241;28;20581;-69
2022/11/02 05:44:08;;;;;;;12.20;2.47;;;12.10;99.90;;;;;;4974346;28;20179;-69
2022/11/02 05:46:33;;;;;;;12.23;2.97;;;12.10;99.90;;;;;;4974090;28;20168;-69
2022/11/02 05:48:59;;;;;;;11.53;2.93;;;12.10;99.90;;;;;;4973952;28;20171;-69
2022/11/02 05:51:24;;;;;;;12.77;3.00;;;12.00;99.90;;;;;;4974231;28;20528;-69
2022/11/02 05:53:50;;;;;;;16.23;3.30;;;12.00;99.90;;;;;;4973847;28;20184;-68
2022/11/02 05:56:15;;;;;;;15.17;3.33;;;11.90;99.90;;;;;;4974033;28;20172;-70
2022/11/02 05:58:41;;;;;;;19.50;3.17;;;12.00;99.90;;;;;;4973455;28;20180;-69
2022/11/02 06:01:08;;;;;;;12.13;2.60;;;11.90;99.90;;;;;;4974047;28;20219;-69
2022/11/02 06:03:34;;;;;;;15.77;3.03;;;12.00;99.90;;;;;;4974012;28;20175;-69
2022/11/02 06:06:04;;;;;;;16.83;3.00;;;11.90;99.90;;;;;;4973993;28;20254;-70
2022/11/02 06:08:37;;;;;;;11.77;2.97;;;12.00;99.90;;;;;;4973761;28;20275;-70
2022/11/02 06:11:04;;;;;;;13.40;3.03;;;11.90;99.90;;;;;;4973946;28;20188;-70
2022/11/02 06:13:30;;;;;;;11.77;2.83;;;11.90;99.90;;;;;;4973859;28;20632;-70
2022/11/02 06:16:02;;;;;;;16.33;3.53;;;11.90;99.90;;;;;;4973125;28;20218;-68
2022/11/02 06:18:27;;;;;;;16.00;3.20;;;11.80;99.90;;;;;;4973855;28;20306;-70
2022/11/02 06:20:57;;;;;;;17.17;3.47;;;11.80;99.90;;;;;;4972515;28;20759;-70
2022/11/02 06:23:23;;;;;;;18.83;3.13;;;11.80;99.90;;;;;;4973089;28;20179;-69
2022/11/02 06:25:53;;;;;;;15.97;3.30;;;11.80;99.90;;;;;;4973761;28;20169;-70
2022/11/02 06:28:19;;;;;;;11.70;3.07;;;11.70;99.90;;;;;;4973179;28;20168;-70
2022/11/02 06:30:45;;;;;;;18.17;3.13;;;11.70;99.90;;;;;;4973371;28;20238;-70
2022/11/02 06:33:10;;;;;;;15.97;3.30;;;11.70;99.90;;;;;;4973749;28;20588;-70
2022/11/02 06:35:36;;;;;;;19.13;3.40;;;11.80;99.90;;;;;;4973320;28;20191;-69
2022/11/02 06:38:02;;;;;;;15.93;3.27;;;11.70;99.90;;;;;;4973293;28;20234;-69
2022/11/02 06:40:28;;;;;;;14.40;3.17;;;11.70;99.90;;;;;;4973577;28;20628;-69
2022/11/02 06:42:57;;;;;;;14.43;3.33;;;11.70;99.90;;;;;;4973031;28;20628;-70
2022/11/02 06:45:23;;;;;;;18.37;3.80;;;11.70;99.90;;;;;;4973533;28;20176;-69
2022/11/02 06:47:49;;;;;;;16.00;3.23;;;11.60;99.90;;;;;;4973293;28;20239;-69
2022/11/02 06:50:15;;;;;;;11.03;3.27;;;11.60;99.90;;;;;;4972586;28;20172;-70
2022/11/02 06:52:45;;;;;;;16.63;3.60;;;11.60;99.90;;;;;;4972131;28;20186;-68
2022/11/02 06:55:12;;;;;;;11.43;3.60;;;11.60;99.90;;;;;;4977115;28;20176;-69
2022/11/02 06:57:39;;;;;;;16.00;3.30;;;11.70;99.90;;;;;;4976437;28;20208;-69
2022/11/02 07:00:07;;;;;;;17.90;3.47;;;11.80;99.90;;;;;;4976678;28;20168;-69
2022/11/02 07:02:32;;;;;;;9.93;2.87;;;11.80;99.90;;;;;;4976491;28;20195;-70
2022/11/02 07:04:58;;;;;;;16.63;3.47;;;11.80;99.90;;;;;;4976935;28;20569;-69
2022/11/02 07:07:24;;;;;;;16.57;4.03;;;11.90;99.90;;;;;;4976167;28;20172;-69
2022/11/02 07:09:49;;;;;;;18.23;3.67;;;11.90;99.90;;;;;;4976032;28;20167;-69
2022/11/02 07:12:15;;;;;;;16.80;3.80;;;11.90;99.90;;;;;;4976312;28;20172;-68
2022/11/02 07:14:41;;;;;;;14.70;3.53;;;12.10;99.90;;;;;;4975330;28;20540;-70
2022/11/02 07:17:06;;;;;;;18.77;4.40;;;12.30;99.90;;;;;;4976373;28;20302;-70
2022/11/02 07:19:32;;;;;;;13.93;3.80;;;12.60;99.90;;;;;;4976466;28;20621;-69
2022/11/02 07:21:57;;;;;;;18.60;3.60;;;12.90;99.90;;;;;;4975809;28;20651;-70
2022/11/02 07:24:23;;;;;;;15.83;4.00;;;13.20;99.90;;;;;;4976532;28;20187;-70
2022/11/02 07:26:49;;;;;;;19.43;3.97;;;13.70;99.90;;;;;;4976098;28;20207;-70
2022/11/02 07:29:18;;;;;;;18.77;4.03;;;14.10;99.90;;;;;;4976145;28;20194;-70
2022/11/02 07:31:44;;;;;;;15.47;3.33;;;14.60;99.90;;;;;;4976326;28;20547;-70
2022/11/02 07:34:11;;;;;;;13.33;3.30;;;15.10;99.90;;;;;;4976009;28;20204;-70
2022/11/02 07:36:37;;;;;;;14.63;3.20;;;15.40;99.90;;;;;;4975947;28;20196;-71
2022/11/02 07:39:03;;;;;;;13.87;3.60;;;15.40;99.90;;;;;;4975542;28;20180;-70
2022/11/02 07:41:29;;;;;;;14.33;3.67;;;15.70;99.90;;;;;;4975795;28;20617;-70
2022/11/02 07:43:54;;;;;;;10.73;3.33;;;15.80;99.90;;;;;;4975918;28;20250;-70
2022/11/02 07:46:20;;;;;;;10.93;3.80;;;15.80;99.90;;;;;;4976093;28;20199;-70
2022/11/02 07:48:46;;;;;;;11.60;3.47;;;16.10;99.90;;;;;;4975931;28;20266;-70
2022/11/02 07:51:12;;;;;;;14.03;3.60;;;16.30;99.90;;;;;;4975947;28;20188;-70
2022/11/02 07:53:38;;;;;;;12.10;3.57;;;16.60;99.90;;;;;;4975247;28;20199;-71
2022/11/02 07:56:05;;;;;;;9.43;2.87;;;16.70;99.90;;;;;;4975662;28;20651;-69
2022/11/02 07:58:30;;;;;;;19.43;3.77;;;16.70;99.90;;;;;;4975551;28;20675;-71
2022/11/02 08:01:00;;;;;;;15.87;3.53;;;16.80;99.90;;;;;;4974203;28;20190;-71
2022/11/02 08:03:26;;;;;;;8.75;3.13;;;17.70;99.90;;;;;;4976005;28;20186;-71
2022/11/02 08:05:52;;;;;;;11.73;3.35;;;18.30;99.90;;;;;;4975193;28;20503;-72
2022/11/02 08:08:20;;;;;;;11.52;3.38;;;18.80;99.90;;;;;;4975182;28;20243;-71
2022/11/02 08:10:48;;;;;;;13.38;3.78;;;18.30;99.90;;;;;;4975054;28;20180;-69
2022/11/02 08:13:20;;;;;;;19.23;4.27;;;17.80;99.90;;;;;;4975385;28;20234;-69
2022/11/02 08:15:53;;;;;;;14.63;3.93;;;16.40;99.90;;;;;;4975571;28;20173;-70
2022/11/02 08:18:24;;;;;;;15.97;3.73;;;16.40;99.90;;;;;;4973501;28;20224;-72
2022/11/02 08:20:50;;;;;;;15.70;3.50;;;17.00;99.90;;;;;;4975292;28;20168;-71
2022/11/02 08:23:18;;;;;;;17.10;4.00;;;17.80;99.90;;;;;;4975210;28;20172;-72
2022/11/02 08:25:45;;;;;;;11.30;3.75;;;18.40;99.90;;;;;;4974993;28;20176;-72
2022/11/02 08:28:16;;;;;;;12.60;3.78;;;18.70;99.90;;;;;;4975030;28;20267;-73
2022/11/02 08:30:42;;;;;;;10.10;3.58;;;19.30;99.90;;;;;;4974424;28;20224;-72
2022/11/02 08:33:12;;;;;;;19.52;8.18;;;19.10;99.90;;;;;;4974449;28;20646;-71
2022/11/02 08:35:38;;;;;;;18.10;4.03;;;18.90;99.90;;;;;;4975593;28;20168;-70
2022/11/02 08:38:04;;;;;;;15.38;4.32;;;18.60;99.90;;;;;;4975230;28;20214;-69
2022/11/02 08:40:30;;;;;;;10.63;3.30;;;18.10;99.90;;;;;;4974923;28;20176;-70
2022/11/02 08:43:01;;;;;;;15.73;3.90;;;17.20;99.90;;;;;;4974361;28;20684;-70
2022/11/02 08:45:28;;;;;;;14.80;3.50;;;16.60;99.90;;;;;;4974955;28;20542;-70
2022/11/02 08:47:54;;;;;;;14.83;3.90;;;16.50;99.90;;;;;;4973468;28;20623;-70
2022/11/02 08:50:20;;;;;;;15.93;4.17;;;16.40;99.90;;;;;;4974065;28;20215;-70
2022/11/02 08:52:46;;;;;;;13.17;3.40;;;16.40;99.90;;;;;;4974663;28;20632;-70
2022/11/02 08:55:12;;;;;;;14.07;3.93;;;15.90;99.90;;;;;;4974112;28;20187;-70
2022/11/02 08:57:52;;;;;;;14.07;3.93;;;16.40;99.90;;;;;;4973306;28;20215;-70
2022/11/02 09:00:20;;;;;;;15.00;4.20;;;16.80;99.90;;;;;;4974407;28;20175;-71
2022/11/02 09:03:02;;;;;;;13.27;3.80;;;17.10;99.90;;;;;;4972429;28;20180;-70
2022/11/02 09:05:30;;;;;;;13.27;3.50;;;17.50;99.90;;;;;;4974481;28;20199;-71
2022/11/02 09:07:58;;;;;;;12.95;3.58;;;18.30;99.90;;;;;;4974751;28;20168;-70
2022/11/02 09:10:25;;;;;;;15.00;3.33;;;18.80;99.90;;;;;;4974045;28;20176;-71
2022/11/02 09:12:50;;;;;;;14.65;4.18;;;18.90;99.90;;;;;;4973719;28;20248;-72
2022/11/02 09:15:16;;;;;;;11.63;3.50;;;19.70;99.90;;;;;;4974490;28;20226;-71
2022/11/02 09:17:44;;;;;;;10.07;3.60;;;20.40;98.10;;;;;;4973710;28;20215;-71
2022/11/02 09:20:10;;;;;;;8.70;3.40;;;20.60;1.00;;;;;;4974294;28;20195;-71
2022/11/02 09:22:35;;;;;;;7.88;3.67;;;20.60;1.00;;;;;;4974411;28;20171;-72
2022/11/02 09:25:02;;;;;;;12.73;3.22;;;20.90;1.00;;;;;;4974194;28;20183;-72
2022/11/02 09:27:27;;;;;;;9.93;3.65;;;21.40;99.90;;;;;;4974174;28;20172;-72
2022/11/02 09:29:53;;;;;;;11.15;3.53;;;21.60;47.00;;;;;;4974135;28;20168;-71
2022/11/02 09:32:18;;;;;;;9.77;3.65;;;21.50;28.10;;;;;;4973716;28;20230;-72
2022/11/02 09:34:46;;;;;;;8.88;3.28;;;22.20;1.00;;;;;;4973882;28;20689;-71
2022/11/02 09:37:11;;;;;;;11.23;3.45;;;21.80;1.00;;;;;;4972503;28;20644;-71
2022/11/02 09:39:37;;;;;;;11.18;3.53;;;21.60;1.00;;;;;;4974008;28;20333;-71
2022/11/02 09:42:20;;;;;;;12.27;4.20;;;21.80;1.00;;;;;;4973472;28;20254;-71
2022/11/02 09:44:48;;;;;;;10.30;3.30;;;22.00;1.00;;;;;;4973624;28;20184;-72
2022/11/02 09:47:14;;;;;;;10.93;3.60;;;21.80;1.00;;;;;;4973415;28;20175;-72
2022/11/02 09:49:42;;;;;;;16.63;3.88;;;21.70;1.00;;;;;;4973714;28;20172;-71
2022/11/02 09:52:26;;;;;;;10.55;3.65;;;21.70;1.00;;;;;;4973487;28;20231;-71
2022/11/02 09:54:55;;;;;;;9.88;3.38;;;22.20;1.00;;;;;;4972080;28;20218;-71
2022/11/02 09:57:28;;;;;;;10.65;3.50;;;22.00;1.00;;;;;;4973668;28;20199;-71
2022/11/02 09:59:53;;;;;;;10.50;3.28;;;22.00;1.00;;;;;;4972262;28;20267;-73
2022/11/02 10:02:30;;;;;;;10.32;3.50;;;22.30;1.00;;;;;;4972555;28;20266;-72
2022/11/02 10:05:33;;;;;;;10.80;3.17;;;21.40;1.00;;;;;;4973807;28;20259;-72
2022/11/02 10:08:25;;;;;;;15.02;4.25;;;21.60;1.00;;;;;;4973900;28;20175;-72
2022/11/02 10:11:14;;;;;;;12.77;3.97;;;22.10;1.00;;;;;;4957187;28;20584;-72
2022/11/02 10:14:09;;;;;;;11.48;3.42;;;22.40;1.00;;;;;;4973595;28;20202;-72
2022/11/02 10:16:39;;;;;;;10.80;3.45;;;21.90;1.00;;;;;;4973717;28;20168;-72
2022/11/02 10:19:12;;;;;;;6.95;2.88;;;21.90;1.00;;;;;;4973156;28;20212;-71
2022/11/02 10:21:41;;;;;;;14.35;3.47;;;21.20;1.00;;;;;;4973536;28;20227;-72
2022/11/02 10:24:29;;;;;;;10.10;3.80;;;20.90;99.90;;;;;;4973563;28;20175;-72
2022/11/02 10:27:12;;;;;;;10.57;3.20;;;20.90;99.90;;;;;;4971934;28;20172;-72
2022/11/02 10:29:38;;;;;;;9.95;3.13;;;21.40;1.00;;;;;;4976056;28;20636;-72
2022/11/02 10:32:04;;;;;;;8.45;3.15;;;21.30;1.00;;;;;;4976818;28;20314;-72
2022/11/02 10:34:30;;;;;;;10.43;3.70;;;20.80;99.90;;;;;;4977544;28;20179;-71
2022/11/02 10:37:02;;;;;;;12.13;3.30;;;20.70;99.90;;;;;;4977472;28;20294;-72
2022/11/02 10:39:40;;;;;;;15.30;3.30;;;20.40;99.90;;;;;;4976865;28;20207;-71
2022/11/02 10:42:42;;;;;;;11.30;3.45;;;20.40;1.00;;;;;;4977242;28;20171;-71
2022/11/02 10:45:36;;;;;;;10.25;3.00;;;19.70;1.00;;;;;;4959762;28;20711;-70
2022/11/02 10:48:31;;;;;;;11.48;3.35;;;19.60;1.00;;;;;;4977104;28;20176;-70
2022/11/02 10:51:00;;;;;;;9.93;3.30;;;19.30;1.00;;;;;;4966543;28;20184;-70
2022/11/02 10:53:25;;;;;;;12.73;4.07;;;19.00;99.50;;;;;;4976100;28;20531;-70
2022/11/02 10:56:00;;;;;;;15.27;4.00;;;18.90;99.50;;;;;;4976682;28;20191;-70
2022/11/02 10:58:29;;;;;;;11.15;3.20;;;18.50;99.90;;;;;;4976793;28;20210;-70
2022/11/02 11:01:10;;;;;;;11.80;3.38;;;18.50;99.90;;;;;;4976757;28;20172;-70
2022/11/02 11:04:01;;;;;;;9.55;3.40;;;18.70;1.00;;;;;;4976776;28;20259;-70
2022/11/02 11:06:38;;;;;;;8.60;3.03;;;18.60;1.00;;;;;;4976713;28;20172;-70
2022/11/02 11:09:14;;;;;;;10.10;3.28;;;18.30;28.10;;;;;;4976464;28;20211;-70
2022/11/02 11:11:40;;;;;;;12.52;3.75;;;18.10;50.80;;;;;;4976470;28;20254;-71
2022/11/02 11:14:17;;;;;;;15.45;3.70;;;18.10;99.90;;;;;;4976557;28;20262;-71
2022/11/02 11:16:54;;;;;;;13.63;3.58;;;17.80;99.90;;;;;;4976660;28;20179;-71
2022/11/02 11:19:22;;;;;;;12.80;3.33;;;18.00;99.90;;;;;;4976130;28;20282;-70
2022/11/02 11:21:49;;;;;;;12.13;3.70;;;18.10;99.90;;;;;;4976502;28;20226;-70
2022/11/02 11:24:30;;;;;;;10.57;3.28;;;18.60;99.90;;;;;;4976565;28;20172;-71
2022/11/02 11:27:21;;;;;;;13.27;3.38;;;19.00;99.90;;;;;;4976237;28;20222;-71
2022/11/02 11:29:53;;;;;;;12.95;3.42;;;19.40;1.00;;;;;;4973519;28;20180;-70
2022/11/02 11:32:28;;;;;;;15.63;3.85;;;19.30;1.00;;;;;;4975971;28;20224;-71
2022/11/02 11:35:00;;;;;;;11.30;3.38;;;19.20;99.90;;;;;;4976242;28;20187;-70
2022/11/02 11:37:26;;;;;;;9.20;3.15;;;19.70;99.90;;;;;;4976573;28;20266;-70
2022/11/02 11:40:05;;;;;;;8.63;2.78;;;19.50;99.90;;;;;;4974677;28;20171;-71
2022/11/02 11:42:35;;;;;;;7.95;2.70;;;19.70;99.90;;;;;;4975422;28;20179;-71
2022/11/02 11:45:05;;;;;;;13.02;3.30;;;19.00;1.00;;;;;;4976369;28;20183;-71
2022/11/02 11:47:38;;;;;;;10.88;2.95;;;18.90;1.00;;;;;;4975751;28;20210;-71
2022/11/02 11:50:14;;;;;;;12.38;3.40;;;19.10;99.90;;;;;;4976131;28;20628;-71
2022/11/02 11:52:40;;;;;;;11.35;3.22;;;18.80;99.90;;;;;;4976402;28;20250;-70
2022/11/02 11:55:19;;;;;;;10.05;3.22;;;18.40;1.00;;;;;;4975349;28;20215;-71
2022/11/02 11:57:45;;;;;;;9.70;2.75;;;18.30;99.90;;;;;;4975574;28;20219;-70
2022/11/02 12:00:28;;;;;;;14.60;3.22;;;18.10;1.00;;;;;;4976036;28;20180;-70
2022/11/02 12:03:06;;;;;;;10.30;2.72;;;17.80;1.00;;;;;;4975574;28;20175;-69
2022/11/02 12:05:38;;;;;;;8.95;3.10;;;17.70;19.90;;;;;;4975440;28;20171;-70
2022/11/02 12:08:19;;;;;;;10.25;3.40;;;17.70;99.90;;;;;;4975502;28;20204;-70
2022/11/02 12:11:03;;;;;;;14.50;3.17;;;17.40;99.90;;;;;;4975142;28;20195;-70
2022/11/02 12:14:03;;;;;;;9.60;2.40;;;17.50;99.60;;;;;;4974822;28;20172;-70
2022/11/02 12:16:41;;;;;;;11.85;2.90;;;17.50;99.40;;;;;;4971252;28;20195;-70
2022/11/02 12:19:25;;;;;;;7.20;2.78;;;17.70;48.50;;;;;;4975182;28;20680;-71
2022/11/02 12:22:09;;;;;;;9.18;2.40;;;17.60;1.00;;;;;;4974715;28;20263;-69
2022/11/02 12:25:02;;;;;;;9.60;2.53;;;17.70;1.00;;;;;;4975330;28;20195;-70
2022/11/02 12:28:09;;;;;;;10.50;2.80;;;17.40;98.50;;;;;;4973636;28;20187;-71
2022/11/02 12:31:02;;;;;;;12.83;3.10;;;17.20;99.60;;;;;;4953553;29;20729;-70
2022/11/02 12:33:59;;;;;;;10.23;3.00;;;17.50;99.70;;;;;;4975172;28;20180;-70
2022/11/02 12:36:56;;;;;;;12.90;3.40;;;17.80;99.00;;;;;;4975171;28;20178;-70
2022/11/02 12:39:42;;;;;;;9.67;2.87;;;17.80;98.70;;;;;;4973317;28;20513;-70
2022/11/02 12:42:19;;;;;;;12.33;3.10;;;17.70;45.00;;;;;;4974242;28;20168;-70
2022/11/02 12:44:53;;;;;;;8.40;2.97;;;17.70;98.20;;;;;;4975425;28;20527;-70
2022/11/02 12:47:35;;;;;;;10.20;2.83;;;17.80;97.70;;;;;;4974696;28;20208;-70
2022/11/02 12:50:17;;;;;;;10.43;3.23;;;17.70;97.30;;;;;;4974426;28;20628;-70
2022/11/02 12:52:46;;;;;;;11.30;2.87;;;17.70;97.00;;;;;;4974682;28;20209;-68
2022/11/02 12:55:17;;;;;;;9.53;3.10;;;17.60;97.10;;;;;;4974522;28;20179;-69
2022/11/02 12:57:45;;;;;;;10.53;2.70;;;17.60;97.70;;;;;;4974112;28;20219;-68
2022/11/02 13:00:16;;;;;;;7.10;2.67;;;17.50;96.80;;;;;;4974100;28;20552;-69
2022/11/02 13:03:00;;;;;;;11.03;3.20;;;17.30;97.40;;;;;;4975031;28;20258;-70
2022/11/02 13:05:42;;;;;;;10.07;2.90;;;17.40;97.50;;;;;;4974890;28;20179;-70
2022/11/02 13:08:16;;;;;;;8.80;3.00;;;17.40;96.10;;;;;;4972778;28;20180;-70
2022/11/02 13:10:52;;;;;;;11.00;2.90;;;17.40;95.40;;;;;;4973685;28;20176;-70
2022/11/02 13:13:42;;;;;;;8.10;2.80;;;17.20;95.70;;;;;;4974419;28;20172;-70
2022/11/02 13:16:10;;;;;;;11.97;2.73;;;17.20;96.60;;;;;;4974363;28;20209;-70